Cumberland Gap, Tennessee
Current Conditions -  °F | °C
As of 10:55 PM on Tuesday 21 Oct 2014 (Local Time) from K1A6 Reporting Station
Overcast Overcast  
Wind Chill: 46°   Ceiling: 5000
Heat Index: 46°   Visibility: 10mi
Dew Point: 42°   Wind: 0mph
Humidity: 87%   Direction: NA
Pressure: 30.12"   Gusts: NA
Location:  36.6°N, 83.67°W
Report Text: K1A6 220255Z AUTO 00000KT 10SM OVC050 08/06 A3012 RMK AO2 T00760055
Loading
Personal Weather Stations






























Interactive Weather Map New forecast layout! Learn more

10-Day Weather Forecast

Advertisements
Track Severe Weather on mobile